sensor_id;sensor_type;location;lat;lon;timestamp;P1;durP1;ratioP1;P2;durP2;ratioP2
4434;SDS011;46552;52.150;8.428;2023-04-25T00:00:42;19.20;;;8.33;;
4434;SDS011;46552;52.150;8.428;2023-04-25T00:03:10;20.90;;;7.20;;
4434;SDS011;46552;52.150;8.428;2023-04-25T00:05:38;22.90;;;8.33;;
4434;SDS011;46552;52.150;8.428;2023-04-25T00:08:08;21.13;;;7.57;;
4434;SDS011;46552;52.150;8.428;2023-04-25T00:10:35;29.50;;;6.97;;
4434;SDS011;46552;52.150;8.428;2023-04-25T00:13:02;28.83;;;7.80;;
4434;SDS011;46552;52.150;8.428;2023-04-25T00:15:30;26.67;;;9.10;;
4434;SDS011;46552;52.150;8.428;2023-04-25T00:17:59;28.17;;;7.20;;
4434;SDS011;46552;52.150;8.428;2023-04-25T00:20:29;21.87;;;9.30;;
4434;SDS011;46552;52.150;8.428;2023-04-25T00:22:56;31.97;;;8.80;;
4434;SDS011;46552;52.150;8.428;2023-04-25T00:25:26;14.90;;;7.53;;
4434;SDS011;46552;52.150;8.428;2023-04-25T00:27:54;18.10;;;7.90;;
4434;SDS011;46552;52.150;8.428;2023-04-25T00:30:21;26.70;;;9.23;;
4434;SDS011;46552;52.150;8.428;2023-04-25T00:32:50;22.50;;;8.17;;
4434;SDS011;46552;52.150;8.428;2023-04-25T00:35:18;20.33;;;9.30;;
4434;SDS011;46552;52.150;8.428;2023-04-25T00:37:46;26.13;;;7.50;;
4434;SDS011;46552;52.150;8.428;2023-04-25T00:40:13;27.83;;;9.10;;
4434;SDS011;46552;52.150;8.428;2023-04-25T00:42:43;25.37;;;8.63;;
4434;SDS011;46552;52.150;8.428;2023-04-25T00:45:13;24.37;;;9.57;;
4434;SDS011;46552;52.150;8.428;2023-04-25T00:47:41;21.60;;;8.83;;
4434;SDS011;46552;52.150;8.428;2023-04-25T00:50:08;32.53;;;9.60;;
4434;SDS011;46552;52.150;8.428;2023-04-25T00:52:36;25.07;;;9.10;;
4434;SDS011;46552;52.150;8.428;2023-04-25T00:55:05;29.37;;;9.67;;
4434;SDS011;46552;52.150;8.428;2023-04-25T00:57:33;18.07;;;7.50;;
4434;SDS011;46552;52.150;8.428;2023-04-25T01:00:02;27.03;;;9.20;;
4434;SDS011;46552;52.150;8.428;2023-04-25T01:02:31;27.00;;;10.20;;
4434;SDS011;46552;52.150;8.428;2023-04-25T01:05:00;37.80;;;9.20;;
4434;SDS011;46552;52.150;8.428;2023-04-25T01:07:28;20.13;;;8.37;;
4434;SDS011;46552;52.150;8.428;2023-04-25T01:09:55;17.90;;;7.10;;
4434;SDS011;46552;52.150;8.428;2023-04-25T01:12:23;19.17;;;8.37;;
4434;SDS011;46552;52.150;8.428;2023-04-25T01:14:51;27.67;;;9.47;;
4434;SDS011;46552;52.150;8.428;2023-04-25T01:17:21;19.33;;;8.33;;
4434;SDS011;46552;52.150;8.428;2023-04-25T01:19:49;25.00;;;8.40;;
4434;SDS011;46552;52.150;8.428;2023-04-25T01:22:18;23.57;;;7.27;;
4434;SDS011;46552;52.150;8.428;2023-04-25T01:24:45;22.00;;;8.40;;
4434;SDS011;46552;52.150;8.428;2023-04-25T01:27:14;24.73;;;6.93;;
4434;SDS011;46552;52.150;8.428;2023-04-25T01:29:41;15.80;;;6.80;;
4434;SDS011;46552;52.150;8.428;2023-04-25T01:32:09;16.40;;;6.60;;
4434;SDS011;46552;52.150;8.428;2023-04-25T01:34:36;26.03;;;7.27;;
4434;SDS011;46552;52.150;8.428;2023-04-25T01:37:04;12.30;;;6.60;;
4434;SDS011;46552;52.150;8.428;2023-04-25T01:39:33;15.93;;;5.50;;
4434;SDS011;46552;52.150;8.428;2023-04-25T01:42:01;10.23;;;5.57;;
4434;SDS011;46552;52.150;8.428;2023-04-25T01:44:28;10.00;;;4.87;;
4434;SDS011;46552;52.150;8.428;2023-04-25T01:46:55;8.53;;;4.53;;
4434;SDS011;46552;52.150;8.428;2023-04-25T01:49:22;14.93;;;6.30;;
4434;SDS011;46552;52.150;8.428;2023-04-25T01:51:49;14.13;;;5.57;;
4434;SDS011;46552;52.150;8.428;2023-04-25T01:54:16;22.37;;;6.10;;
4434;SDS011;46552;52.150;8.428;2023-04-25T01:56:52;11.90;;;4.57;;
4434;SDS011;46552;52.150;8.428;2023-04-25T01:59:19;13.83;;;5.03;;
4434;SDS011;46552;52.150;8.428;2023-04-25T02:01:47;13.70;;;5.47;;
4434;SDS011;46552;52.150;8.428;2023-04-25T02:04:16;22.13;;;7.20;;
4434;SDS011;46552;52.150;8.428;2023-04-25T02:06:43;28.63;;;5.50;;
4434;SDS011;46552;52.150;8.428;2023-04-25T02:09:12;17.20;;;5.10;;
4434;SDS011;46552;52.150;8.428;2023-04-25T02:11:39;19.00;;;4.77;;
4434;SDS011;46552;52.150;8.428;2023-04-25T02:14:08;15.30;;;4.97;;
4434;SDS011;46552;52.150;8.428;2023-04-25T02:16:35;15.80;;;4.80;;
4434;SDS011;46552;52.150;8.428;2023-04-25T02:19:02;15.20;;;5.90;;
4434;SDS011;46552;52.150;8.428;2023-04-25T02:21:30;22.43;;;6.77;;
4434;SDS011;46552;52.150;8.428;2023-04-25T02:23:57;43.50;;;6.70;;
4434;SDS011;46552;52.150;8.428;2023-04-25T02:26:24;30.50;;;6.67;;
4434;SDS011;46552;52.150;8.428;2023-04-25T02:28:51;23.93;;;6.43;;
4434;SDS011;46552;52.150;8.428;2023-04-25T02:31:21;19.27;;;7.17;;
4434;SDS011;46552;52.150;8.428;2023-04-25T02:33:48;21.40;;;6.77;;
4434;SDS011;46552;52.150;8.428;2023-04-25T02:36:16;20.30;;;5.70;;
4434;SDS011;46552;52.150;8.428;2023-04-25T02:38:43;24.43;;;5.63;;
4434;SDS011;46552;52.150;8.428;2023-04-25T02:41:11;23.47;;;6.03;;
4434;SDS011;46552;52.150;8.428;2023-04-25T02:43:38;36.00;;;6.67;;
4434;SDS011;46552;52.150;8.428;2023-04-25T02:46:05;28.43;;;5.83;;
4434;SDS011;46552;52.150;8.428;2023-04-25T02:48:35;32.80;;;6.07;;
4434;SDS011;46552;52.150;8.428;2023-04-25T02:51:03;28.93;;;6.40;;
4434;SDS011;46552;52.150;8.428;2023-04-25T02:53:30;19.20;;;5.63;;
4434;SDS011;46552;52.150;8.428;2023-04-25T02:55:57;31.53;;;6.60;;
4434;SDS011;46552;52.150;8.428;2023-04-25T02:58:24;21.90;;;5.40;;
4434;SDS011;46552;52.150;8.428;2023-04-25T03:00:52;17.43;;;6.53;;
4434;SDS011;46552;52.150;8.428;2023-04-25T03:03:19;35.23;;;6.67;;
4434;SDS011;46552;52.150;8.428;2023-04-25T03:05:48;16.70;;;5.87;;
4434;SDS011;46552;52.150;8.428;2023-04-25T03:08:15;20.57;;;7.47;;
4434;SDS011;46552;52.150;8.428;2023-04-25T03:10:42;34.40;;;8.10;;
4434;SDS011;46552;52.150;8.428;2023-04-25T03:13:10;28.80;;;7.83;;
4434;SDS011;46552;52.150;8.428;2023-04-25T03:15:38;31.93;;;6.57;;
4434;SDS011;46552;52.150;8.428;2023-04-25T03:18:05;39.53;;;7.83;;
4434;SDS011;46552;52.150;8.428;2023-04-25T03:20:32;32.63;;;7.00;;
4434;SDS011;46552;52.150;8.428;2023-04-25T03:23:01;31.53;;;6.60;;
4434;SDS011;46552;52.150;8.428;2023-04-25T03:25:27;20.23;;;6.23;;
4434;SDS011;46552;52.150;8.428;2023-04-25T03:27:55;22.40;;;6.43;;
4434;SDS011;46552;52.150;8.428;2023-04-25T03:30:22;50.63;;;9.77;;
4434;SDS011;46552;52.150;8.428;2023-04-25T03:32:49;37.57;;;7.00;;
4434;SDS011;46552;52.150;8.428;2023-04-25T03:35:17;28.40;;;6.33;;
4434;SDS011;46552;52.150;8.428;2023-04-25T03:37:44;28.93;;;6.10;;
4434;SDS011;46552;52.150;8.428;2023-04-25T03:40:12;28.40;;;7.03;;
4434;SDS011;46552;52.150;8.428;2023-04-25T03:42:40;33.50;;;6.37;;
4434;SDS011;46552;52.150;8.428;2023-04-25T03:45:07;31.33;;;8.20;;
4434;SDS011;46552;52.150;8.428;2023-04-25T03:47:36;23.87;;;7.40;;
4434;SDS011;46552;52.150;8.428;2023-04-25T03:50:03;32.20;;;7.40;;
4434;SDS011;46552;52.150;8.428;2023-04-25T03:52:31;30.57;;;7.40;;
4434;SDS011;46552;52.150;8.428;2023-04-25T03:54:58;34.43;;;6.63;;
4434;SDS011;46552;52.150;8.428;2023-04-25T03:57:28;24.67;;;7.40;;
4434;SDS011;46552;52.150;8.428;2023-04-25T03:59:55;26.80;;;6.33;;
4434;SDS011;46552;52.150;8.428;2023-04-25T04:02:22;23.40;;;7.20;;
4434;SDS011;46552;52.150;8.428;2023-04-25T04:04:50;23.47;;;5.93;;
4434;SDS011;46552;52.150;8.428;2023-04-25T04:07:18;28.43;;;8.47;;
4434;SDS011;46552;52.150;8.428;2023-04-25T04:09:45;38.17;;;9.23;;
4434;SDS011;46552;52.150;8.428;2023-04-25T04:12:13;31.87;;;7.80;;
4434;SDS011;46552;52.150;8.428;2023-04-25T04:14:42;30.10;;;6.30;;
4434;SDS011;46552;52.150;8.428;2023-04-25T04:17:09;31.17;;;5.67;;
4434;SDS011;46552;52.150;8.428;2023-04-25T04:19:36;35.87;;;6.07;;
4434;SDS011;46552;52.150;8.428;2023-04-25T04:22:03;37.30;;;6.13;;
4434;SDS011;46552;52.150;8.428;2023-04-25T04:24:30;31.70;;;5.90;;
4434;SDS011;46552;52.150;8.428;2023-04-25T04:26:57;19.97;;;6.40;;
4434;SDS011;46552;52.150;8.428;2023-04-25T04:29:25;20.07;;;6.87;;
4434;SDS011;46552;52.150;8.428;2023-04-25T04:31:54;33.03;;;6.57;;
4434;SDS011;46552;52.150;8.428;2023-04-25T04:34:23;29.93;;;6.07;;
4434;SDS011;46552;52.150;8.428;2023-04-25T04:36:50;25.90;;;5.83;;
4434;SDS011;46552;52.150;8.428;2023-04-25T04:39:18;26.23;;;5.70;;
4434;SDS011;46552;52.150;8.428;2023-04-25T04:41:45;22.20;;;6.87;;
4434;SDS011;46552;52.150;8.428;2023-04-25T04:44:12;26.43;;;7.00;;
4434;SDS011;46552;52.150;8.428;2023-04-25T04:46:40;31.43;;;7.87;;
4434;SDS011;46552;52.150;8.428;2023-04-25T04:49:09;25.93;;;9.27;;
4434;SDS011;46552;52.150;8.428;2023-04-25T04:51:37;22.77;;;7.50;;
4434;SDS011;46552;52.150;8.428;2023-04-25T04:54:04;27.60;;;7.30;;
4434;SDS011;46552;52.150;8.428;2023-04-25T04:56:31;28.10;;;7.50;;
4434;SDS011;46552;52.150;8.428;2023-04-25T04:58:58;36.63;;;7.43;;
4434;SDS011;46552;52.150;8.428;2023-04-25T05:01:26;37.23;;;8.00;;
4434;SDS011;46552;52.150;8.428;2023-04-25T05:03:54;46.50;;;7.33;;
4434;SDS011;46552;52.150;8.428;2023-04-25T05:06:26;20.13;;;8.20;;
4434;SDS011;46552;52.150;8.428;2023-04-25T05:08:55;26.53;;;7.43;;
4434;SDS011;46552;52.150;8.428;2023-04-25T05:11:22;19.80;;;7.40;;
4434;SDS011;46552;52.150;8.428;2023-04-25T05:13:50;27.03;;;7.40;;
4434;SDS011;46552;52.150;8.428;2023-04-25T05:16:18;25.90;;;7.00;;
4434;SDS011;46552;52.150;8.428;2023-04-25T05:18:45;35.30;;;9.00;;
4434;SDS011;46552;52.150;8.428;2023-04-25T05:21:13;25.13;;;6.83;;
4434;SDS011;46552;52.150;8.428;2023-04-25T05:23:42;27.97;;;8.10;;
4434;SDS011;46552;52.150;8.428;2023-04-25T05:26:09;24.73;;;7.70;;
4434;SDS011;46552;52.150;8.428;2023-04-25T05:28:38;28.60;;;7.23;;
4434;SDS011;46552;52.150;8.428;2023-04-25T05:31:07;24.47;;;6.90;;
4434;SDS011;46552;52.150;8.428;2023-04-25T05:33:37;24.60;;;6.80;;
4434;SDS011;46552;52.150;8.428;2023-04-25T05:36:05;18.63;;;8.33;;
4434;SDS011;46552;52.150;8.428;2023-04-25T05:38:33;34.17;;;7.50;;
4434;SDS011;46552;52.150;8.428;2023-04-25T05:41:02;21.33;;;8.00;;
4434;SDS011;46552;52.150;8.428;2023-04-25T05:43:29;20.67;;;6.17;;
4434;SDS011;46552;52.150;8.428;2023-04-25T05:45:56;26.50;;;7.70;;
4434;SDS011;46552;52.150;8.428;2023-04-25T05:48:23;40.77;;;6.97;;
4434;SDS011;46552;52.150;8.428;2023-04-25T05:50:51;43.77;;;8.00;;
4434;SDS011;46552;52.150;8.428;2023-04-25T05:53:18;31.23;;;6.50;;
4434;SDS011;46552;52.150;8.428;2023-04-25T05:55:46;18.83;;;6.53;;
4434;SDS011;46552;52.150;8.428;2023-04-25T05:58:15;43.73;;;7.40;;
4434;SDS011;46552;52.150;8.428;2023-04-25T06:00:42;19.20;;;6.03;;
4434;SDS011;46552;52.150;8.428;2023-04-25T06:03:11;30.87;;;7.33;;
4434;SDS011;46552;52.150;8.428;2023-04-25T06:05:40;19.60;;;6.37;;
4434;SDS011;46552;52.150;8.428;2023-04-25T06:08:07;30.00;;;6.17;;
4434;SDS011;46552;52.150;8.428;2023-04-25T06:10:35;36.93;;;8.00;;
4434;SDS011;46552;52.150;8.428;2023-04-25T06:13:02;17.27;;;5.53;;
4434;SDS011;46552;52.150;8.428;2023-04-25T06:15:33;33.23;;;6.10;;
4434;SDS011;46552;52.150;8.428;2023-04-25T06:18:00;20.80;;;6.83;;
4434;SDS011;46552;52.150;8.428;2023-04-25T06:20:27;21.33;;;7.13;;
4434;SDS011;46552;52.150;8.428;2023-04-25T06:22:56;22.13;;;6.30;;
4434;SDS011;46552;52.150;8.428;2023-04-25T06:25:24;20.03;;;6.20;;
4434;SDS011;46552;52.150;8.428;2023-04-25T06:27:51;18.20;;;5.50;;
4434;SDS011;46552;52.150;8.428;2023-04-25T06:30:18;16.30;;;5.30;;
4434;SDS011;46552;52.150;8.428;2023-04-25T06:32:50;26.40;;;6.30;;
4434;SDS011;46552;52.150;8.428;2023-04-25T06:35:18;23.00;;;7.17;;
4434;SDS011;46552;52.150;8.428;2023-04-25T06:37:45;14.80;;;4.90;;
4434;SDS011;46552;52.150;8.428;2023-04-25T06:40:13;21.37;;;6.27;;
4434;SDS011;46552;52.150;8.428;2023-04-25T06:42:40;20.80;;;5.70;;
4434;SDS011;46552;52.150;8.428;2023-04-25T06:45:08;27.33;;;5.73;;
4434;SDS011;46552;52.150;8.428;2023-04-25T06:47:35;31.13;;;5.40;;
4434;SDS011;46552;52.150;8.428;2023-04-25T06:50:05;22.23;;;5.83;;
4434;SDS011;46552;52.150;8.428;2023-04-25T06:52:32;27.37;;;6.80;;
4434;SDS011;46552;52.150;8.428;2023-04-25T06:54:59;28.40;;;7.23;;
4434;SDS011;46552;52.150;8.428;2023-04-25T06:57:26;23.73;;;5.10;;
4434;SDS011;46552;52.150;8.428;2023-04-25T06:59:53;15.77;;;5.20;;
4434;SDS011;46552;52.150;8.428;2023-04-25T07:02:21;23.97;;;5.47;;
4434;SDS011;46552;52.150;8.428;2023-04-25T07:04:48;28.27;;;4.87;;
4434;SDS011;46552;52.150;8.428;2023-04-25T07:07:17;26.30;;;5.37;;
4434;SDS011;46552;52.150;8.428;2023-04-25T07:09:44;19.40;;;5.20;;
4434;SDS011;46552;52.150;8.428;2023-04-25T07:12:12;16.83;;;4.40;;
4434;SDS011;46552;52.150;8.428;2023-04-25T07:14:39;21.30;;;4.50;;
4434;SDS011;46552;52.150;8.428;2023-04-25T07:17:06;26.07;;;4.20;;
4434;SDS011;46552;52.150;8.428;2023-04-25T07:19:33;19.73;;;5.50;;
4434;SDS011;46552;52.150;8.428;2023-04-25T07:22:02;26.47;;;4.20;;
4434;SDS011;46552;52.150;8.428;2023-04-25T07:24:31;21.70;;;5.20;;
4434;SDS011;46552;52.150;8.428;2023-04-25T07:26:58;24.97;;;4.67;;
4434;SDS011;46552;52.150;8.428;2023-04-25T07:29:27;19.63;;;4.87;;
4434;SDS011;46552;52.150;8.428;2023-04-25T07:31:56;24.17;;;4.80;;
4434;SDS011;46552;52.150;8.428;2023-04-25T07:34:23;21.17;;;4.50;;
4434;SDS011;46552;52.150;8.428;2023-04-25T07:36:51;13.13;;;4.83;;
4434;SDS011;46552;52.150;8.428;2023-04-25T07:39:18;18.83;;;4.40;;
4434;SDS011;46552;52.150;8.428;2023-04-25T07:41:48;20.23;;;5.00;;
4434;SDS011;46552;52.150;8.428;2023-04-25T07:44:15;22.83;;;4.00;;
4434;SDS011;46552;52.150;8.428;2023-04-25T07:46:42;16.27;;;4.27;;
4434;SDS011;46552;52.150;8.428;2023-04-25T07:49:09;20.90;;;4.07;;
4434;SDS011;46552;52.150;8.428;2023-04-25T07:51:38;12.03;;;3.93;;
4434;SDS011;46552;52.150;8.428;2023-04-25T07:54:06;15.70;;;4.40;;
4434;SDS011;46552;52.150;8.428;2023-04-25T07:56:33;26.83;;;4.33;;
4434;SDS011;46552;52.150;8.428;2023-04-25T07:59:02;17.93;;;3.43;;
4434;SDS011;46552;52.150;8.428;2023-04-25T08:01:29;18.60;;;4.13;;
4434;SDS011;46552;52.150;8.428;2023-04-25T08:03:56;10.00;;;3.50;;
4434;SDS011;46552;52.150;8.428;2023-04-25T08:06:23;16.70;;;4.30;;
4434;SDS011;46552;52.150;8.428;2023-04-25T08:08:51;16.50;;;4.07;;
4434;SDS011;46552;52.150;8.428;2023-04-25T08:11:18;14.80;;;4.13;;
4434;SDS011;46552;52.150;8.428;2023-04-25T08:13:45;17.50;;;5.00;;
4434;SDS011;46552;52.150;8.428;2023-04-25T08:16:14;18.13;;;4.73;;
4434;SDS011;46552;52.150;8.428;2023-04-25T08:18:41;13.37;;;3.83;;
4434;SDS011;46552;52.150;8.428;2023-04-25T08:21:08;11.87;;;3.90;;
4434;SDS011;46552;52.150;8.428;2023-04-25T08:23:36;17.60;;;4.87;;
4434;SDS011;46552;52.150;8.428;2023-04-25T08:26:03;28.77;;;4.67;;
4434;SDS011;46552;52.150;8.428;2023-04-25T08:28:31;13.63;;;4.10;;
4434;SDS011;46552;52.150;8.428;2023-04-25T08:30:58;12.30;;;3.30;;
4434;SDS011;46552;52.150;8.428;2023-04-25T08:33:27;19.10;;;4.60;;
4434;SDS011;46552;52.150;8.428;2023-04-25T08:35:55;21.17;;;3.80;;
4434;SDS011;46552;52.150;8.428;2023-04-25T08:38:22;15.70;;;4.53;;
4434;SDS011;46552;52.150;8.428;2023-04-25T08:40:51;14.03;;;3.20;;
4434;SDS011;46552;52.150;8.428;2023-04-25T08:43:18;26.90;;;4.67;;
4434;SDS011;46552;52.150;8.428;2023-04-25T08:45:46;16.87;;;4.50;;
4434;SDS011;46552;52.150;8.428;2023-04-25T08:48:14;18.73;;;3.70;;
4434;SDS011;46552;52.150;8.428;2023-04-25T08:50:45;20.23;;;3.90;;
4434;SDS011;46552;52.150;8.428;2023-04-25T08:53:16;10.70;;;3.70;;
4434;SDS011;46552;52.150;8.428;2023-04-25T08:55:50;15.37;;;3.60;;
4434;SDS011;46552;52.150;8.428;2023-04-25T08:58:20;18.03;;;3.73;;
4434;SDS011;46552;52.150;8.428;2023-04-25T09:00:47;14.23;;;4.93;;
4434;SDS011;46552;52.150;8.428;2023-04-25T09:03:15;19.87;;;3.70;;
4434;SDS011;46552;52.150;8.428;2023-04-25T09:05:44;13.53;;;3.43;;
4434;SDS011;46552;52.150;8.428;2023-04-25T09:08:12;16.87;;;3.33;;
4434;SDS011;46552;52.150;8.428;2023-04-25T09:10:39;19.50;;;3.20;;
4434;SDS011;46552;52.150;8.428;2023-04-25T09:13:07;13.37;;;3.03;;
4434;SDS011;46552;52.150;8.428;2023-04-25T09:15:46;9.60;;;3.23;;
4434;SDS011;46552;52.150;8.428;2023-04-25T09:18:21;8.50;;;2.50;;
4434;SDS011;46552;52.150;8.428;2023-04-25T09:20:52;10.70;;;3.20;;
4434;SDS011;46552;52.150;8.428;2023-04-25T09:23:20;12.80;;;3.93;;
4434;SDS011;46552;52.150;8.428;2023-04-25T09:25:48;12.10;;;3.27;;
4434;SDS011;46552;52.150;8.428;2023-04-25T09:28:22;9.43;;;3.00;;
4434;SDS011;46552;52.150;8.428;2023-04-25T09:30:54;11.77;;;2.30;;
4434;SDS011;46552;52.150;8.428;2023-04-25T09:33:27;13.77;;;2.37;;
4434;SDS011;46552;52.150;8.428;2023-04-25T09:36:03;34.13;;;6.37;;
4434;SDS011;46552;52.150;8.428;2023-04-25T09:38:32;9.63;;;3.27;;
4434;SDS011;46552;52.150;8.428;2023-04-25T09:41:07;11.47;;;3.20;;
4434;SDS011;46552;52.150;8.428;2023-04-25T09:43:35;21.80;;;3.30;;
4434;SDS011;46552;52.150;8.428;2023-04-25T09:46:07;8.57;;;2.60;;
4434;SDS011;46552;52.150;8.428;2023-04-25T09:48:36;9.67;;;3.40;;
4434;SDS011;46552;52.150;8.428;2023-04-25T09:51:06;11.50;;;3.17;;
4434;SDS011;46552;52.150;8.428;2023-04-25T09:53:34;12.50;;;3.00;;
4434;SDS011;46552;52.150;8.428;2023-04-25T09:56:04;9.73;;;2.73;;
4434;SDS011;46552;52.150;8.428;2023-04-25T09:58:33;10.53;;;2.63;;
4434;SDS011;46552;52.150;8.428;2023-04-25T10:01:01;6.13;;;2.33;;
4434;SDS011;46552;52.150;8.428;2023-04-25T10:03:31;6.30;;;2.30;;
4434;SDS011;46552;52.150;8.428;2023-04-25T10:06:01;8.00;;;1.97;;
4434;SDS011;46552;52.150;8.428;2023-04-25T10:08:31;10.03;;;2.63;;
4434;SDS011;46552;52.150;8.428;2023-04-25T10:11:00;15.43;;;2.10;;
4434;SDS011;46552;52.150;8.428;2023-04-25T10:13:28;8.27;;;2.80;;
4434;SDS011;46552;52.150;8.428;2023-04-25T10:15:57;8.37;;;2.17;;
4434;SDS011;46552;52.150;8.428;2023-04-25T10:18:25;8.60;;;2.27;;
4434;SDS011;46552;52.150;8.428;2023-04-25T10:20:53;4.77;;;2.13;;
4434;SDS011;46552;52.150;8.428;2023-04-25T10:23:21;7.90;;;2.37;;
4434;SDS011;46552;52.150;8.428;2023-04-25T10:25:52;5.63;;;2.57;;
4434;SDS011;46552;52.150;8.428;2023-04-25T10:28:21;7.73;;;2.50;;
4434;SDS011;46552;52.150;8.428;2023-04-25T10:30:58;8.93;;;2.20;;
4434;SDS011;46552;52.150;8.428;2023-04-25T10:36:13;9.00;;;3.03;;
4434;SDS011;46552;52.150;8.428;2023-04-25T10:38:44;6.50;;;2.37;;
4434;SDS011;46552;52.150;8.428;2023-04-25T10:41:14;11.93;;;2.67;;
4434;SDS011;46552;52.150;8.428;2023-04-25T10:43:41;6.60;;;2.60;;
4434;SDS011;46552;52.150;8.428;2023-04-25T10:46:13;16.03;;;2.60;;
4434;SDS011;46552;52.150;8.428;2023-04-25T10:48:44;7.63;;;2.57;;
4434;SDS011;46552;52.150;8.428;2023-04-25T10:51:21;10.63;;;2.67;;
4434;SDS011;46552;52.150;8.428;2023-04-25T10:53:56;8.87;;;2.37;;
4434;SDS011;46552;52.150;8.428;2023-04-25T10:56:26;12.53;;;2.60;;
4434;SDS011;46552;52.150;8.428;2023-04-25T10:59:07;7.13;;;2.77;;
4434;SDS011;46552;52.150;8.428;2023-04-25T11:01:36;17.33;;;2.50;;
4434;SDS011;46552;52.150;8.428;2023-04-25T11:04:19;5.17;;;1.77;;
4434;SDS011;46552;52.150;8.428;2023-04-25T11:06:53;9.40;;;2.10;;
4434;SDS011;46552;52.150;8.428;2023-04-25T11:09:28;10.90;;;2.20;;
4434;SDS011;46552;52.150;8.428;2023-04-25T11:11:59;10.30;;;3.07;;
4434;SDS011;46552;52.150;8.428;2023-04-25T11:14:26;9.53;;;2.27;;
4434;SDS011;46552;52.150;8.428;2023-04-25T11:16:53;9.07;;;2.37;;
4434;SDS011;46552;52.150;8.428;2023-04-25T11:19:21;5.90;;;2.40;;
4434;SDS011;46552;52.150;8.428;2023-04-25T11:21:48;9.03;;;2.73;;
4434;SDS011;46552;52.150;8.428;2023-04-25T11:24:15;9.90;;;2.80;;
4434;SDS011;46552;52.150;8.428;2023-04-25T11:26:46;14.47;;;3.30;;
4434;SDS011;46552;52.150;8.428;2023-04-25T11:29:16;5.77;;;2.50;;
4434;SDS011;46552;52.150;8.428;2023-04-25T11:31:43;13.13;;;3.77;;
4434;SDS011;46552;52.150;8.428;2023-04-25T11:34:11;15.80;;;2.33;;
4434;SDS011;46552;52.150;8.428;2023-04-25T11:36:43;10.20;;;1.97;;
4434;SDS011;46552;52.150;8.428;2023-04-25T11:39:12;11.43;;;3.20;;
4434;SDS011;46552;52.150;8.428;2023-04-25T11:41:40;13.37;;;3.57;;
4434;SDS011;46552;52.150;8.428;2023-04-25T11:44:08;8.63;;;2.17;;
4434;SDS011;46552;52.150;8.428;2023-04-25T11:46:37;8.40;;;2.00;;
4434;SDS011;46552;52.150;8.428;2023-04-25T11:49:04;13.40;;;2.40;;
4434;SDS011;46552;52.150;8.428;2023-04-25T11:51:37;5.00;;;1.90;;
4434;SDS011;46552;52.150;8.428;2023-04-25T11:54:05;10.17;;;2.43;;
4434;SDS011;46552;52.150;8.428;2023-04-25T11:56:33;11.40;;;1.83;;
4434;SDS011;46552;52.150;8.428;2023-04-25T11:59:01;15.70;;;3.00;;
4434;SDS011;46552;52.150;8.428;2023-04-25T12:01:30;10.03;;;3.03;;
4434;SDS011;46552;52.150;8.428;2023-04-25T12:04:09;10.60;;;2.50;;
4434;SDS011;46552;52.150;8.428;2023-04-25T12:06:37;8.37;;;1.87;;
4434;SDS011;46552;52.150;8.428;2023-04-25T12:09:07;6.13;;;2.40;;
4434;SDS011;46552;52.150;8.428;2023-04-25T12:11:40;8.30;;;2.63;;
4434;SDS011;46552;52.150;8.428;2023-04-25T12:14:08;12.20;;;3.30;;
4434;SDS011;46552;52.150;8.428;2023-04-25T12:16:40;20.37;;;3.40;;
4434;SDS011;46552;52.150;8.428;2023-04-25T12:19:13;9.13;;;3.50;;
4434;SDS011;46552;52.150;8.428;2023-04-25T12:21:40;11.23;;;2.60;;
4434;SDS011;46552;52.150;8.428;2023-04-25T12:24:10;8.40;;;2.70;;
4434;SDS011;46552;52.150;8.428;2023-04-25T12:26:46;5.83;;;2.80;;
4434;SDS011;46552;52.150;8.428;2023-04-25T12:29:17;8.40;;;2.63;;
4434;SDS011;46552;52.150;8.428;2023-04-25T12:31:46;13.70;;;2.97;;
4434;SDS011;46552;52.150;8.428;2023-04-25T12:34:16;10.30;;;2.20;;
4434;SDS011;46552;52.150;8.428;2023-04-25T12:36:44;5.43;;;2.00;;
4434;SDS011;46552;52.150;8.428;2023-04-25T12:39:15;8.40;;;2.37;;
4434;SDS011;46552;52.150;8.428;2023-04-25T12:41:43;4.50;;;1.50;;
4434;SDS011;46552;52.150;8.428;2023-04-25T12:44:10;11.73;;;2.33;;
4434;SDS011;46552;52.150;8.428;2023-04-25T12:46:38;8.00;;;1.80;;
4434;SDS011;46552;52.150;8.428;2023-04-25T12:49:06;4.67;;;2.03;;
4434;SDS011;46552;52.150;8.428;2023-04-25T12:51:35;7.17;;;2.27;;
4434;SDS011;46552;52.150;8.428;2023-04-25T12:54:02;11.83;;;2.80;;
4434;SDS011;46552;52.150;8.428;2023-04-25T12:56:32;7.57;;;2.13;;
4434;SDS011;46552;52.150;8.428;2023-04-25T12:59:00;6.50;;;2.40;;
4434;SDS011;46552;52.150;8.428;2023-04-25T13:01:28;15.33;;;2.23;;
4434;SDS011;46552;52.150;8.428;2023-04-25T13:03:55;6.47;;;1.73;;
4434;SDS011;46552;52.150;8.428;2023-04-25T13:06:23;12.90;;;2.47;;
4434;SDS011;46552;52.150;8.428;2023-04-25T13:08:51;6.27;;;1.53;;
4434;SDS011;46552;52.150;8.428;2023-04-25T13:11:19;6.73;;;1.60;;
4434;SDS011;46552;52.150;8.428;2023-04-25T13:13:47;3.77;;;1.63;;
4434;SDS011;46552;52.150;8.428;2023-04-25T13:16:14;6.07;;;2.33;;
4434;SDS011;46552;52.150;8.428;2023-04-25T13:18:41;6.63;;;2.00;;
4434;SDS011;46552;52.150;8.428;2023-04-25T13:21:09;4.20;;;1.70;;
4434;SDS011;46552;52.150;8.428;2023-04-25T13:23:36;3.60;;;1.37;;
4434;SDS011;46552;52.150;8.428;2023-04-25T13:26:05;5.73;;;2.20;;
4434;SDS011;46552;52.150;8.428;2023-04-25T13:28:33;6.93;;;2.37;;
4434;SDS011;46552;52.150;8.428;2023-04-25T13:31:00;7.67;;;2.73;;
4434;SDS011;46552;52.150;8.428;2023-04-25T13:33:27;4.13;;;1.67;;
4434;SDS011;46552;52.150;8.428;2023-04-25T13:35:54;4.33;;;1.60;;
4434;SDS011;46552;52.150;8.428;2023-04-25T13:38:22;3.73;;;1.60;;
4434;SDS011;46552;52.150;8.428;2023-04-25T13:40:51;5.10;;;1.50;;
4434;SDS011;46552;52.150;8.428;2023-04-25T13:43:20;7.70;;;2.20;;
4434;SDS011;46552;52.150;8.428;2023-04-25T13:45:48;7.47;;;2.30;;
4434;SDS011;46552;52.150;8.428;2023-04-25T13:48:15;7.37;;;2.10;;
4434;SDS011;46552;52.150;8.428;2023-04-25T13:50:42;8.17;;;2.03;;
4434;SDS011;46552;52.150;8.428;2023-04-25T13:53:09;5.97;;;1.70;;
4434;SDS011;46552;52.150;8.428;2023-04-25T13:55:37;4.30;;;1.87;;
4434;SDS011;46552;52.150;8.428;2023-04-25T13:58:04;6.47;;;1.70;;
4434;SDS011;46552;52.150;8.428;2023-04-25T14:00:35;6.00;;;1.83;;
4434;SDS011;46552;52.150;8.428;2023-04-25T14:03:05;7.00;;;1.70;;
4434;SDS011;46552;52.150;8.428;2023-04-25T14:05:33;8.73;;;2.17;;
4434;SDS011;46552;52.150;8.428;2023-04-25T14:08:05;4.33;;;2.07;;
4434;SDS011;46552;52.150;8.428;2023-04-25T14:10:33;4.73;;;2.00;;
4434;SDS011;46552;52.150;8.428;2023-04-25T14:13:01;9.10;;;2.70;;
4434;SDS011;46552;52.150;8.428;2023-04-25T14:15:30;9.87;;;2.10;;
4434;SDS011;46552;52.150;8.428;2023-04-25T14:17:59;7.80;;;1.50;;
4434;SDS011;46552;52.150;8.428;2023-04-25T14:20:27;10.20;;;1.60;;
4434;SDS011;46552;52.150;8.428;2023-04-25T14:22:55;5.17;;;1.87;;
4434;SDS011;46552;52.150;8.428;2023-04-25T14:25:23;5.60;;;1.80;;
4434;SDS011;46552;52.150;8.428;2023-04-25T14:27:51;4.17;;;1.70;;
4434;SDS011;46552;52.150;8.428;2023-04-25T14:30:18;7.73;;;2.07;;
4434;SDS011;46552;52.150;8.428;2023-04-25T14:32:46;7.53;;;2.20;;
4434;SDS011;46552;52.150;8.428;2023-04-25T14:35:16;5.57;;;2.37;;
4434;SDS011;46552;52.150;8.428;2023-04-25T14:37:43;9.73;;;2.20;;
4434;SDS011;46552;52.150;8.428;2023-04-25T14:40:11;16.87;;;4.07;;
4434;SDS011;46552;52.150;8.428;2023-04-25T14:42:40;5.63;;;2.40;;
4434;SDS011;46552;52.150;8.428;2023-04-25T14:45:08;8.10;;;2.17;;
4434;SDS011;46552;52.150;8.428;2023-04-25T14:47:36;8.80;;;2.00;;
4434;SDS011;46552;52.150;8.428;2023-04-25T14:50:04;4.60;;;1.40;;
4434;SDS011;46552;52.150;8.428;2023-04-25T14:52:33;8.63;;;2.07;;
4434;SDS011;46552;52.150;8.428;2023-04-25T14:55:01;4.73;;;1.53;;
4434;SDS011;46552;52.150;8.428;2023-04-25T14:57:30;3.17;;;1.20;;
4434;SDS011;46552;52.150;8.428;2023-04-25T14:59:57;4.33;;;1.60;;